createdAt,value
2022-08-07T00:00:13.360Z,10.30
2022-08-07T00:00:45.117Z,10.29
2022-08-07T00:01:44.704Z,10.31
2022-08-07T00:02:36.786Z,10.28
2022-08-07T00:03:02.762Z,10.42
2022-08-07T00:03:36.597Z,10.38
2022-08-07T00:04:09.535Z,10.33
2022-08-07T00:04:45.329Z,10.34
2022-08-07T00:05:17.068Z,10.34
2022-08-07T00:05:49.148Z,10.42
2022-08-07T00:06:21.051Z,10.42
2022-08-07T00:07:05.309Z,10.37
2022-08-07T00:07:41.737Z,10.38
2022-08-07T00:08:14.461Z,10.38
2022-08-07T00:08:46.211Z,10.42
2022-08-07T00:09:21.328Z,10.36
2022-08-07T00:10:04.923Z,10.38
2022-08-07T00:10:48.367Z,10.35
2022-08-07T00:11:33.240Z,10.29
2022-08-07T00:12:05.225Z,10.33
2022-08-07T00:12:57.951Z,10.40
2022-08-07T00:13:28.582Z,10.41
2022-08-07T00:14:01.184Z,10.39
2022-08-07T00:14:33.388Z,10.30
2022-08-07T00:15:06.067Z,10.21
2022-08-07T00:15:46.711Z,10.15
2022-08-07T00:16:27.944Z,10.11
2022-08-07T00:17:01.953Z,10.13
2022-08-07T00:17:35.827Z,10.10
2022-08-07T00:18:09.360Z,10.13
2022-08-07T00:18:51.349Z,10.04
2022-08-07T00:19:25.957Z,10.10
2022-08-07T00:20:03.265Z,10.08
2022-08-07T00:20:39.199Z,10.05
2022-08-07T00:21:57.126Z,10.07
2022-08-07T00:22:03.434Z,10.09
2022-08-07T00:22:35.766Z,10.17
2022-08-07T00:23:08.028Z,10.11
2022-08-07T00:23:40.928Z,10.13
2022-08-07T00:24:12.525Z,10.05
2022-08-07T00:24:44.334Z,10.06
2022-08-07T00:25:17.244Z,10.04
2022-08-07T00:25:52.431Z,10.05
2022-08-07T00:26:49.574Z,10.03
2022-08-07T00:27:22.637Z,10.09
2022-08-07T00:27:56.689Z,10.05
2022-08-07T00:28:33.245Z,9.91
2022-08-07T00:29:06.076Z,9.91
2022-08-07T00:29:37.666Z,9.96
2022-08-07T00:30:27.670Z,10.01
2022-08-07T00:31:00.840Z,10.00
2022-08-07T00:31:37.815Z,10.01
2022-08-07T00:32:13.939Z,10.05
2022-08-07T00:32:48.378Z,10.05
2022-08-07T00:33:20.382Z,10.08
2022-08-07T00:33:51.950Z,10.06
2022-08-07T00:34:23.472Z,9.98
2022-08-07T00:34:56.777Z,9.99
2022-08-07T00:35:30.322Z,10.04
2022-08-07T00:36:03.657Z,10.06
2022-08-07T00:36:35.255Z,10.04
2022-08-07T00:37:07.151Z,10.10
2022-08-07T00:37:48.185Z,10.13
2022-08-07T00:38:20.343Z,10.14
2022-08-07T00:39:03.745Z,9.91
2022-08-07T00:39:35.794Z,9.95
2022-08-07T00:40:07.657Z,9.90
2022-08-07T00:40:45.572Z,9.89
2022-08-07T00:41:25.957Z,9.91
2022-08-07T00:42:02.517Z,9.97
2022-08-07T00:42:37.065Z,10.03
2022-08-07T00:43:58.680Z,9.93
2022-08-07T00:44:03.860Z,9.78
2022-08-07T00:44:35.747Z,9.77
2022-08-07T00:45:16.343Z,9.87
2022-08-07T00:45:48.979Z,9.83
2022-08-07T00:46:22.712Z,9.76
2022-08-07T00:46:55.400Z,9.66
2022-08-07T00:48:09.129Z,9.74
2022-08-07T00:48:19.490Z,9.70
2022-08-07T00:48:56.746Z,9.58
2022-08-07T00:50:21.452Z,9.55
2022-08-07T00:50:46.672Z,9.54
2022-08-07T00:51:17.036Z,9.52
2022-08-07T00:51:57.766Z,9.49
2022-08-07T00:52:33.192Z,9.46
2022-08-07T00:53:05.224Z,9.47
2022-08-07T00:53:50.750Z,9.49
2022-08-07T00:54:26.909Z,9.52
2022-08-07T00:54:58.585Z,9.55
2022-08-07T00:56:00.698Z,9.56
2022-08-07T00:56:34.013Z,9.50
2022-08-07T00:57:07.070Z,9.46
2022-08-07T00:57:55.070Z,9.46
2022-08-07T00:58:27.725Z,9.42
2022-08-07T00:59:00.270Z,9.38
2022-08-07T00:59:35.204Z,9.39
2022-08-07T01:00:08.529Z,9.37
2022-08-07T01:00:53.745Z,9.35
2022-08-07T01:01:26.274Z,9.31
2022-08-07T01:01:59.141Z,9.29
2022-08-07T01:02:30.995Z,9.29
2022-08-07T01:03:03.296Z,9.27
2022-08-07T01:03:56.735Z,9.27
2022-08-07T01:04:26.747Z,9.24
2022-08-07T01:05:06.741Z,9.32
2022-08-07T01:05:53.730Z,9.36
2022-08-07T01:06:25.893Z,9.40
2022-08-07T01:06:57.703Z,9.43
2022-08-07T01:07:30.959Z,9.42
2022-08-07T01:08:03.152Z,9.39
2022-08-07T01:08:34.722Z,9.35
2022-08-07T01:09:06.316Z,9.34
2022-08-07T01:10:07.011Z,9.35
2022-08-07T01:10:32.168Z,9.26
2022-08-07T01:12:04.462Z,9.19
2022-08-07T01:12:09.778Z,9.21
2022-08-07T01:12:53.858Z,9.18
2022-08-07T01:13:35.202Z,9.20
2022-08-07T01:14:08.190Z,9.24
2022-08-07T01:14:40.604Z,9.24
2022-08-07T01:15:17.106Z,9.34
2022-08-07T01:16:05.183Z,9.33
2022-08-07T01:16:37.793Z,9.28
2022-08-07T01:17:09.877Z,9.26
2022-08-07T01:17:41.537Z,9.27
2022-08-07T01:18:16.818Z,9.21
2022-08-07T01:18:50.071Z,9.20
2022-08-07T01:19:23.555Z,9.24
2022-08-07T01:20:03.708Z,9.27
2022-08-07T01:20:43.240Z,9.31
2022-08-07T01:21:22.521Z,9.35
2022-08-07T01:21:55.641Z,9.36
2022-08-07T01:22:33.596Z,9.40
2022-08-07T01:23:12.788Z,9.51
2022-08-07T01:23:46.623Z,9.54
2022-08-07T01:24:21.345Z,9.58
2022-08-07T01:24:54.586Z,9.52
2022-08-07T01:25:40.477Z,9.46
2022-08-07T01:26:21.772Z,9.48
2022-08-07T01:26:54.162Z,9.44
2022-08-07T01:27:32.348Z,9.45
2022-08-07T01:28:05.604Z,9.36
2022-08-07T01:28:37.636Z,9.32
2022-08-07T01:29:09.297Z,9.33
2022-08-07T01:29:41.724Z,9.46
2022-08-07T01:30:13.664Z,9.50
2022-08-07T01:30:52.218Z,9.59
2022-08-07T01:31:41.805Z,9.47
2022-08-07T01:32:16.777Z,9.41
2022-08-07T01:32:51.746Z,9.34
2022-08-07T01:33:24.803Z,9.25
2022-08-07T01:34:02.867Z,9.21
2022-08-07T01:34:39.391Z,9.19
2022-08-07T01:35:17.306Z,9.24
2022-08-07T01:35:53.398Z,9.26
2022-08-07T01:36:33.494Z,9.25
2022-08-07T01:37:09.715Z,9.33
2022-08-07T01:37:41.961Z,9.38
2022-08-07T01:38:14.588Z,9.37
2022-08-07T01:38:57.876Z,9.35
2022-08-07T01:39:40.535Z,9.37
2022-08-07T01:40:26.183Z,9.28
2022-08-07T01:41:05.677Z,9.21
2022-08-07T01:41:40.921Z,9.30
2022-08-07T01:42:39.794Z,9.33
2022-08-07T01:43:34.578Z,9.45
2022-08-07T01:44:11.692Z,9.33
2022-08-07T01:44:47.942Z,9.38
2022-08-07T01:45:22.867Z,9.36
2022-08-07T01:46:02.413Z,9.31
2022-08-07T01:46:34.758Z,9.32
2022-08-07T01:47:14.493Z,9.37
2022-08-07T01:48:18.091Z,9.36
2022-08-07T01:48:51.629Z,9.28
2022-08-07T01:49:26.458Z,9.35
2022-08-07T01:49:58.365Z,9.36
2022-08-07T01:50:36.744Z,9.37
2022-08-07T01:52:00.964Z,9.33
2022-08-07T01:52:04.876Z,9.32
2022-08-07T01:52:39.434Z,9.33
2022-08-07T01:54:08.830Z,9.33
2022-08-07T01:54:32.786Z,9.30
2022-08-07T01:55:09.889Z,9.32
2022-08-07T01:56:01.650Z,9.34
2022-08-07T01:56:41.820Z,9.34
2022-08-07T01:57:34.087Z,9.28
2022-08-07T01:58:27.490Z,9.27
2022-08-07T01:59:07.763Z,9.31
2022-08-07T01:59:54.541Z,9.35
2022-08-07T02:00:29.158Z,9.28
2022-08-07T02:01:59.300Z,9.26
2022-08-07T02:02:11.783Z,9.18
2022-08-07T02:03:12.138Z,9.10
2022-08-07T02:04:12.107Z,9.02
2022-08-07T02:04:57.265Z,8.97
2022-08-07T02:05:47.824Z,8.95
2022-08-07T02:06:31.344Z,8.82
2022-08-07T02:07:07.809Z,8.80
2022-08-07T02:08:09.896Z,8.73
2022-08-07T02:08:46.837Z,8.71
2022-08-07T02:09:33.824Z,8.71
2022-08-07T02:10:24.049Z,8.71
2022-08-07T02:10:59.213Z,8.70
2022-08-07T02:12:03.015Z,8.70
2022-08-07T02:12:29.318Z,8.67
2022-08-07T02:13:04.876Z,8.60
2022-08-07T02:13:56.684Z,8.70
2022-08-07T02:14:40.226Z,8.83
2022-08-07T02:15:14.298Z,8.88
2022-08-07T02:15:49.612Z,8.88
2022-08-07T02:16:33.436Z,8.84
2022-08-07T02:17:06.207Z,8.83
2022-08-07T02:17:40.419Z,8.81
2022-08-07T02:18:12.819Z,8.78
2022-08-07T02:18:46.811Z,8.77
2022-08-07T02:20:04.937Z,8.82
2022-08-07T02:20:19.918Z,8.85
2022-08-07T02:20:58.156Z,8.91
2022-08-07T02:21:56.569Z,8.93
2022-08-07T02:22:25.811Z,8.91
2022-08-07T02:23:03.676Z,8.97
2022-08-07T02:23:38.627Z,8.93
2022-08-07T02:24:11.090Z,8.97
2022-08-07T02:24:50.697Z,9.11
2022-08-07T02:26:10.405Z,9.19
2022-08-07T02:26:33.037Z,9.16
2022-08-07T02:27:11.148Z,9.17
2022-08-07T02:27:52.301Z,9.22
2022-08-07T02:28:29.560Z,9.27
2022-08-07T02:29:07.752Z,9.26
2022-08-07T02:29:53.967Z,9.16
2022-08-07T02:30:27.272Z,9.21
2022-08-07T02:31:19.109Z,9.14
2022-08-07T02:31:54.718Z,9.17
2022-08-07T02:32:30.065Z,9.20
2022-08-07T02:33:08.968Z,9.19
2022-08-07T02:34:03.598Z,9.19
2022-08-07T02:34:34.639Z,9.17
2022-08-07T02:35:09.329Z,9.13
2022-08-07T02:36:29.619Z,9.00
2022-08-07T02:36:37.144Z,8.94
2022-08-07T02:37:15.677Z,8.96
2022-08-07T02:37:48.064Z,8.95
2022-08-07T02:38:28.112Z,8.90
2022-08-07T02:39:16.043Z,8.87
2022-08-07T02:40:02.299Z,8.94
2022-08-07T02:40:51.529Z,8.89
2022-08-07T02:41:33.516Z,8.89
2022-08-07T02:42:14.696Z,8.96
2022-08-07T02:42:49.589Z,9.00
2022-08-07T02:43:23.494Z,9.02
2022-08-07T02:43:57.665Z,8.99
2022-08-07T02:44:34.732Z,9.06
2022-08-07T02:45:58.593Z,9.13
2022-08-07T02:46:05.124Z,9.16
2022-08-07T02:46:46.763Z,9.07
2022-08-07T02:47:24.796Z,8.95
2022-08-07T02:48:04.439Z,8.97
2022-08-07T02:48:54.644Z,8.96
2022-08-07T02:49:55.604Z,8.97
2022-08-07T02:50:18.587Z,8.83
2022-08-07T02:50:53.091Z,8.83
2022-08-07T02:51:42.084Z,8.83
2022-08-07T02:52:30.999Z,8.83
2022-08-07T02:53:10.863Z,8.88
2022-08-07T02:53:44.088Z,8.89
2022-08-07T02:54:19.965Z,9.00
2022-08-07T02:54:52.213Z,9.06
2022-08-07T02:56:02.961Z,9.06
2022-08-07T02:56:23.073Z,9.01
2022-08-07T02:57:01.835Z,8.90
2022-08-07T02:57:36.795Z,8.85
2022-08-07T02:58:12.057Z,8.91
2022-08-07T02:58:47.333Z,8.94
2022-08-07T02:59:27.565Z,8.91
2022-08-07T03:00:05.203Z,8.89
2022-08-07T03:00:46.725Z,8.96
2022-08-07T03:01:35.570Z,8.93
2022-08-07T03:02:10.795Z,8.92
2022-08-07T03:02:54.301Z,8.90
2022-08-07T03:03:42.070Z,8.85
2022-08-07T03:04:23.550Z,8.74
2022-08-07T03:04:56.633Z,8.87
2022-08-07T03:05:35.902Z,8.78
2022-08-07T03:06:16.603Z,8.83
2022-08-07T03:06:57.883Z,8.91
2022-08-07T03:08:05.122Z,8.85
2022-08-07T03:08:29.287Z,8.87
2022-08-07T03:09:05.515Z,8.82
2022-08-07T03:09:43.569Z,8.85
2022-08-07T03:10:18.076Z,8.80
2022-08-07T03:10:57.595Z,8.84
2022-08-07T03:11:38.638Z,8.88
2022-08-07T03:12:22.562Z,8.85
2022-08-07T03:13:04.826Z,8.82
2022-08-07T03:13:49.874Z,8.83
2022-08-07T03:14:24.236Z,8.85
2022-08-07T03:14:57.489Z,8.86
2022-08-07T03:15:55.905Z,8.78
2022-08-07T03:16:27.948Z,8.82
2022-08-07T03:17:01.105Z,8.80
2022-08-07T03:17:53.311Z,8.78
2022-08-07T03:18:34.944Z,8.83
2022-08-07T03:19:09.935Z,8.83
2022-08-07T03:19:42.036Z,8.80
2022-08-07T03:20:15.986Z,8.78
2022-08-07T03:20:47.985Z,8.86
2022-08-07T03:21:19.769Z,8.87
2022-08-07T03:21:52.537Z,8.72
2022-08-07T03:22:29.523Z,8.73
2022-08-07T03:23:02.840Z,8.69
2022-08-07T03:24:19.991Z,8.67
2022-08-07T03:24:31.015Z,8.69
2022-08-07T03:25:06.486Z,8.61
2022-08-07T03:25:58.298Z,8.60
2022-08-07T03:26:33.233Z,8.56
2022-08-07T03:27:09.955Z,8.52
2022-08-07T03:27:59.400Z,8.52
2022-08-07T03:28:40.848Z,8.46
2022-08-07T03:29:14.771Z,8.49
2022-08-07T03:29:51.673Z,8.58
2022-08-07T03:30:27.980Z,8.61
2022-08-07T03:31:18.452Z,8.59
2022-08-07T03:31:51.585Z,8.54
2022-08-07T03:32:29.648Z,8.51
2022-08-07T03:33:02.405Z,8.47
2022-08-07T03:33:40.165Z,8.45
2022-08-07T03:34:18.478Z,8.42
2022-08-07T03:35:17.161Z,8.34
2022-08-07T03:35:50.826Z,8.31
2022-08-07T03:36:25.881Z,8.29
2022-08-07T03:37:00.281Z,8.26
2022-08-07T03:37:54.186Z,8.21
2022-08-07T03:38:29.663Z,8.15
2022-08-07T03:39:13.032Z,8.30
2022-08-07T03:40:07.375Z,8.22
2022-08-07T03:40:44.483Z,8.29
2022-08-07T03:41:18.591Z,8.32
2022-08-07T03:42:10.419Z,8.47
2022-08-07T03:42:42.616Z,8.52
2022-08-07T03:43:17.433Z,8.46
2022-08-07T03:43:57.455Z,8.40
2022-08-07T03:44:34.795Z,8.35
2022-08-07T03:45:08.127Z,8.31
2022-08-07T03:45:43.612Z,8.29
2022-08-07T03:46:21.453Z,8.30
2022-08-07T03:47:13.104Z,8.30
2022-08-07T03:47:51.449Z,8.26
2022-08-07T03:48:26.565Z,8.24
2022-08-07T03:49:03.521Z,8.22
2022-08-07T03:49:47.808Z,8.26
2022-08-07T03:50:25.075Z,8.30
2022-08-07T03:51:04.741Z,8.35
2022-08-07T03:51:47.510Z,8.43
2022-08-07T03:52:29.417Z,8.26
2022-08-07T03:53:06.849Z,8.13
2022-08-07T03:54:33.198Z,8.12
2022-08-07T03:54:36.393Z,8.14
2022-08-07T03:55:24.616Z,8.25
2022-08-07T03:56:33.382Z,8.26
2022-08-07T03:57:10.547Z,8.28
2022-08-07T03:58:35.204Z,8.24
2022-08-07T03:59:07.948Z,8.13
2022-08-07T03:59:46.328Z,7.97
2022-08-07T04:00:35.592Z,7.92
2022-08-07T04:01:13.738Z,8.07
2022-08-07T04:01:48.270Z,8.03
2022-08-07T04:02:24.639Z,7.94
2022-08-07T04:02:56.999Z,7.97
2022-08-07T04:03:49.839Z,8.05
2022-08-07T04:04:25.645Z,8.14
2022-08-07T04:05:02.811Z,8.22
2022-08-07T04:05:40.455Z,8.24
2022-08-07T04:06:37.308Z,8.25
2022-08-07T04:07:16.811Z,8.33
2022-08-07T04:07:51.695Z,8.31
2022-08-07T04:08:28.656Z,8.28
2022-08-07T04:09:02.020Z,8.24
2022-08-07T04:09:45.135Z,8.23
2022-08-07T04:10:24.994Z,8.18
2022-08-07T04:12:21.206Z,8.06
2022-08-07T04:12:23.385Z,8.20
2022-08-07T04:12:47.388Z,8.20
2022-08-07T04:13:19.463Z,8.29
2022-08-07T04:14:10.942Z,8.18
2022-08-07T04:14:46.089Z,8.16
2022-08-07T04:15:21.226Z,8.20
2022-08-07T04:15:55.750Z,8.26
2022-08-07T04:16:32.528Z,8.32
2022-08-07T04:17:20.270Z,8.36
2022-08-07T04:18:57.785Z,8.28
2022-08-07T04:18:59.728Z,8.27
2022-08-07T04:19:50.910Z,8.24
2022-08-07T04:20:25.380Z,8.23
2022-08-07T04:20:57.412Z,8.24
2022-08-07T04:21:31.220Z,8.23
2022-08-07T04:22:12.165Z,8.27
2022-08-07T04:22:53.397Z,8.34
2022-08-07T04:23:43.694Z,8.38
2022-08-07T04:24:33.652Z,8.48
2022-08-07T04:25:12.777Z,8.50
2022-08-07T04:25:47.689Z,8.42
2022-08-07T04:26:22.121Z,8.41
2022-08-07T04:26:54.777Z,8.27
2022-08-07T04:27:27.653Z,8.15
2022-08-07T04:28:06.440Z,8.07
2022-08-07T04:28:42.972Z,8.10
2022-08-07T04:29:16.729Z,8.17
2022-08-07T04:29:58.460Z,8.23
2022-08-07T04:30:43.709Z,8.41
2022-08-07T04:31:38.971Z,8.46
2022-08-07T04:32:27.260Z,8.46
2022-08-07T04:33:10.378Z,8.47
2022-08-07T04:33:54.771Z,8.43
2022-08-07T04:34:33.226Z,8.41
2022-08-07T04:35:11.400Z,8.30
2022-08-07T04:35:50.491Z,8.29
2022-08-07T04:36:27.021Z,8.39
2022-08-07T04:37:01.810Z,8.42
2022-08-07T04:38:01.025Z,8.45
2022-08-07T04:38:29.150Z,8.37
2022-08-07T04:39:04.711Z,8.41
2022-08-07T04:39:36.962Z,8.48
2022-08-07T04:40:17.506Z,8.57
2022-08-07T04:40:53.131Z,8.53
2022-08-07T04:41:36.899Z,8.59
2022-08-07T04:42:08.704Z,8.62
2022-08-07T04:42:41.945Z,8.69
2022-08-07T04:43:17.618Z,8.97
2022-08-07T04:44:12.106Z,9.28
2022-08-07T04:44:54.745Z,9.57
2022-08-07T04:46:01.833Z,9.65
2022-08-07T04:47:04.116Z,9.56
2022-08-07T04:48:02.053Z,9.67
2022-08-07T04:48:44.615Z,9.85
2022-08-07T04:49:57.795Z,9.97
2022-08-07T04:50:36.005Z,10.11
2022-08-07T04:51:27.661Z,10.19
2022-08-07T04:52:25.233Z,10.25
2022-08-07T04:53:05.657Z,10.38
2022-08-07T04:54:01.568Z,10.38
2022-08-07T04:55:02.014Z,10.27
2022-08-07T04:58:12.100Z,10.16
2022-08-07T04:58:13.928Z,10.25
2022-08-07T04:58:27.463Z,10.12
2022-08-07T04:59:17.240Z,9.97
2022-08-07T05:00:18.791Z,9.95
2022-08-07T05:01:18.125Z,9.96
2022-08-07T05:02:02.140Z,10.08
2022-08-07T05:02:55.486Z,10.16
2022-08-07T05:04:06.532Z,10.16
2022-08-07T05:04:43.983Z,10.14
2022-08-07T05:05:52.887Z,10.13
2022-08-07T05:06:28.112Z,10.12
2022-08-07T05:07:09.554Z,10.13
2022-08-07T05:07:58.672Z,10.28
2022-08-07T05:09:00.924Z,10.13
2022-08-07T05:09:56.879Z,10.16
2022-08-07T05:10:39.450Z,10.19
2022-08-07T05:11:58.442Z,10.16
2022-08-07T05:12:30.369Z,10.28
2022-08-07T05:14:54.209Z,10.37
2022-08-07T05:14:55.031Z,10.33
2022-08-07T05:15:23.008Z,10.29
2022-08-07T05:15:59.986Z,10.47
2022-08-07T05:16:44.027Z,10.48
2022-08-07T05:17:52.318Z,10.57
2022-08-07T05:18:16.541Z,10.66
2022-08-07T05:18:53.759Z,10.67
2022-08-07T05:19:32.834Z,10.74
2022-08-07T05:20:24.729Z,10.86
2022-08-07T05:21:00.941Z,10.85
2022-08-07T05:22:00.315Z,10.86
2022-08-07T05:22:27.826Z,10.90
2022-08-07T05:23:15.497Z,10.92
2022-08-07T05:24:00.033Z,10.94
2022-08-07T05:24:39.458Z,10.90
2022-08-07T05:25:36.013Z,10.91
2022-08-07T05:26:15.473Z,10.82
2022-08-07T05:26:55.936Z,10.99
2022-08-07T05:28:03.336Z,11.03
2022-08-07T05:28:26.766Z,11.16
2022-08-07T05:29:04.100Z,11.21
2022-08-07T05:29:51.117Z,11.28
2022-08-07T05:30:30.266Z,11.22
2022-08-07T05:31:05.565Z,11.37
2022-08-07T05:31:41.188Z,11.39
2022-08-07T05:32:26.433Z,11.54
2022-08-07T05:32:58.726Z,11.57
2022-08-07T05:33:31.487Z,11.61
2022-08-07T05:34:11.771Z,11.67
2022-08-07T05:34:47.324Z,11.72
2022-08-07T05:35:23.793Z,11.84
2022-08-07T05:36:07.982Z,11.89
2022-08-07T05:36:48.866Z,12.00
2022-08-07T05:37:42.380Z,12.06
2022-08-07T05:39:00.495Z,12.06
2022-08-07T05:39:47.671Z,12.10
2022-08-07T05:40:03.826Z,12.28
2022-08-07T05:40:50.404Z,12.15
2022-08-07T05:41:24.018Z,12.31
2022-08-07T05:42:15.698Z,12.29
2022-08-07T05:43:06.204Z,12.35
2022-08-07T05:44:08.430Z,12.39
2022-08-07T05:44:36.683Z,12.50
2022-08-07T05:45:25.996Z,12.55
2022-08-07T05:46:08.189Z,12.47
2022-08-07T05:46:40.721Z,12.61
2022-08-07T05:47:19.877Z,12.68
2022-08-07T05:48:02.077Z,12.74
2022-08-07T05:48:58.237Z,12.81
2022-08-07T05:49:40.384Z,12.81
2022-08-07T05:50:14.724Z,12.61
2022-08-07T05:50:47.494Z,12.91
2022-08-07T05:51:24.220Z,13.17
2022-08-07T05:51:56.562Z,13.46
2022-08-07T05:52:32.763Z,13.76
2022-08-07T05:53:06.740Z,14.09
2022-08-07T05:54:13.701Z,14.65
2022-08-07T05:54:55.825Z,14.90
2022-08-07T05:56:01.822Z,15.12
2022-08-07T05:56:29.898Z,15.47
2022-08-07T05:57:04.185Z,15.75
2022-08-07T05:57:38.147Z,16.28
2022-08-07T05:58:14.824Z,16.72
2022-08-07T05:58:52.763Z,17.42
2022-08-07T05:59:28.066Z,18.44
2022-08-07T06:00:07.708Z,18.75
2022-08-07T06:00:52.647Z,19.37
2022-08-07T06:01:26.302Z,19.91
2022-08-07T06:01:59.494Z,20.23
2022-08-07T06:02:35.678Z,20.61
2022-08-07T06:03:09.658Z,20.73
2022-08-07T06:03:57.113Z,21.19
2022-08-07T06:04:38.241Z,21.78
2022-08-07T06:05:15.773Z,22.05
2022-08-07T06:05:56.373Z,21.43
2022-08-07T06:06:29.837Z,21.50
2022-08-07T06:07:05.966Z,21.31
2022-08-07T06:08:13.406Z,21.34
2022-08-07T06:08:34.150Z,22.21
2022-08-07T06:09:07.564Z,22.51
2022-08-07T06:10:03.849Z,22.67
2022-08-07T06:10:36.615Z,23.07
2022-08-07T06:11:10.219Z,23.47
2022-08-07T06:11:42.036Z,23.04
2022-08-07T06:12:15.369Z,23.57
2022-08-07T06:12:48.448Z,24.00
2022-08-07T06:14:10.856Z,24.40
2022-08-07T06:14:21.343Z,23.69
2022-08-07T06:15:05.083Z,24.21
2022-08-07T06:15:42.758Z,23.58
2022-08-07T06:16:18.879Z,24.00
2022-08-07T06:16:55.855Z,23.88
2022-08-07T06:17:37.402Z,24.14
2022-08-07T06:18:13.928Z,24.23
2022-08-07T06:18:51.466Z,23.98
2022-08-07T06:19:52.369Z,24.27
2022-08-07T06:20:25.446Z,23.95
2022-08-07T06:22:14.717Z,23.61
2022-08-07T06:22:15.203Z,25.47
2022-08-07T06:23:02.297Z,24.63
2022-08-07T06:24:45.516Z,23.64
2022-08-07T06:24:52.622Z,24.96
2022-08-07T06:25:34.599Z,24.11
2022-08-07T06:26:07.046Z,23.98
2022-08-07T06:26:42.674Z,24.13
2022-08-07T06:27:44.502Z,23.85
2022-08-07T06:28:17.009Z,23.85
2022-08-07T06:29:01.141Z,24.26
2022-08-07T06:29:38.827Z,23.43
2022-08-07T06:30:31.957Z,23.67
2022-08-07T06:31:03.860Z,23.31
2022-08-07T06:31:47.008Z,23.58
2022-08-07T06:32:24.044Z,23.82
2022-08-07T06:33:01.658Z,23.74
2022-08-07T06:33:35.544Z,24.21
2022-08-07T06:34:07.150Z,24.13
2022-08-07T06:34:45.260Z,24.98
2022-08-07T06:35:17.681Z,24.94
2022-08-07T06:36:12.946Z,24.80
2022-08-07T06:36:48.236Z,24.80
2022-08-07T06:37:24.701Z,24.92
2022-08-07T06:38:20.293Z,25.52
2022-08-07T06:38:59.379Z,26.60
2022-08-07T06:40:16.428Z,25.67
2022-08-07T06:40:45.935Z,24.86
2022-08-07T06:42:00.879Z,25.69
2022-08-07T06:42:35.269Z,25.42
2022-08-07T06:43:21.182Z,24.58
2022-08-07T06:44:10.772Z,24.76
2022-08-07T06:44:45.589Z,25.05
2022-08-07T06:45:23.993Z,26.09
2022-08-07T06:46:00.975Z,26.87
2022-08-07T06:46:35.458Z,26.10
2022-08-07T06:47:10.433Z,27.00
2022-08-07T06:47:57.533Z,25.32
2022-08-07T06:48:32.839Z,25.20
2022-08-07T06:49:05.452Z,26.12
2022-08-07T06:49:51.077Z,26.97
2022-08-07T06:50:25.082Z,27.22
2022-08-07T06:50:59.500Z,26.40
2022-08-07T06:51:49.655Z,26.89
2022-08-07T06:52:31.956Z,26.58
2022-08-07T06:53:49.282Z,25.48
2022-08-07T06:55:27.461Z,26.33
2022-08-07T06:55:34.247Z,26.76
2022-08-07T06:56:00.110Z,27.21
2022-08-07T06:56:49.624Z,26.47
2022-08-07T06:57:43.664Z,27.77
2022-08-07T06:58:28.919Z,28.33
2022-08-07T07:00:11.706Z,28.97
2022-08-07T07:00:13.578Z,28.82
2022-08-07T07:00:53.039Z,28.65
2022-08-07T07:01:25.753Z,28.51
2022-08-07T07:02:07.759Z,28.50
2022-08-07T07:02:53.304Z,27.58
2022-08-07T07:03:47.449Z,25.95
2022-08-07T07:04:32.559Z,27.78
2022-08-07T07:05:06.043Z,28.36
2022-08-07T07:06:04.789Z,28.80
2022-08-07T07:06:31.796Z,29.20
2022-08-07T07:07:19.177Z,29.56
2022-08-07T07:08:06.631Z,29.29
2022-08-07T07:08:39.922Z,29.53
2022-08-07T07:09:25.339Z,28.68
2022-08-07T07:10:03.724Z,28.21
2022-08-07T07:10:35.720Z,28.53
2022-08-07T07:11:13.536Z,28.76
2022-08-07T07:12:09.824Z,29.61
2022-08-07T07:12:53.534Z,29.62
2022-08-07T07:13:56.291Z,27.99
2022-08-07T07:14:28.430Z,28.46
2022-08-07T07:15:23.824Z,28.00
2022-08-07T07:16:03.210Z,28.50
2022-08-07T07:16:38.921Z,28.58
2022-08-07T07:17:45.196Z,27.81
2022-08-07T07:18:47.470Z,27.04
2022-08-07T07:19:55.975Z,29.16
2022-08-07T07:20:17.452Z,29.51
2022-08-07T07:20:54.524Z,29.83
2022-08-07T07:22:04.194Z,27.74
2022-08-07T07:22:37.024Z,27.18
2022-08-07T07:24:08.443Z,27.49
2022-08-07T07:24:12.554Z,27.76
2022-08-07T07:24:58.472Z,28.10
2022-08-07T07:26:32.038Z,27.81
2022-08-07T07:26:36.824Z,29.01
2022-08-07T07:27:10.164Z,29.03
2022-08-07T07:27:58.431Z,28.56
2022-08-07T07:29:22.708Z,27.60
2022-08-07T07:29:55.892Z,28.64
2022-08-07T07:30:39.613Z,28.87
2022-08-07T07:31:25.853Z,29.46
2022-08-07T07:32:03.599Z,29.78
2022-08-07T07:32:38.867Z,29.41
2022-08-07T07:33:12.214Z,29.22
2022-08-07T07:33:44.945Z,28.29
2022-08-07T07:34:30.887Z,28.22
2022-08-07T07:35:04.013Z,28.70
2022-08-07T07:35:50.657Z,28.70
2022-08-07T07:36:32.264Z,27.76
2022-08-07T07:37:05.499Z,26.97
2022-08-07T07:38:02.092Z,28.16
2022-08-07T07:38:34.876Z,28.85
2022-08-07T07:39:08.858Z,28.78
2022-08-07T07:39:45.766Z,28.93
2022-08-07T07:40:27.148Z,28.57
2022-08-07T07:41:02.757Z,28.61
2022-08-07T07:42:01.983Z,28.29
2022-08-07T07:42:33.093Z,28.37
2022-08-07T07:43:15.337Z,28.44
2022-08-07T07:44:16.751Z,29.00
2022-08-07T07:44:49.432Z,28.72
2022-08-07T07:46:38.505Z,27.27
2022-08-07T07:46:53.604Z,28.08
2022-08-07T07:47:17.524Z,28.20
2022-08-07T07:47:55.182Z,28.14
2022-08-07T07:48:35.236Z,28.15
2022-08-07T07:50:15.938Z,28.36
2022-08-07T07:50:35.022Z,27.78
2022-08-07T07:50:54.280Z,27.58
2022-08-07T07:51:26.060Z,28.39
2022-08-07T07:52:00.323Z,27.51
2022-08-07T07:52:32.428Z,27.48
2022-08-07T07:53:04.188Z,28.00
2022-08-07T07:53:52.035Z,27.95
2022-08-07T07:54:24.881Z,27.92
2022-08-07T07:54:58.595Z,29.00
2022-08-07T07:55:37.585Z,29.35
2022-08-07T07:56:17.401Z,29.88
2022-08-07T07:57:05.652Z,30.10
2022-08-07T07:57:50.410Z,29.99
2022-08-07T07:58:25.605Z,29.82
2022-08-07T07:59:01.567Z,29.73
2022-08-07T07:59:52.720Z,30.05
2022-08-07T08:00:29.668Z,28.70
2022-08-07T08:02:04.143Z,28.54
2022-08-07T08:02:04.690Z,28.84
2022-08-07T08:03:01.295Z,28.71
2022-08-07T08:04:09.282Z,28.21
2022-08-07T08:04:28.779Z,28.36
2022-08-07T08:05:02.531Z,28.85
2022-08-07T08:05:50.807Z,28.54
2022-08-07T08:06:26.084Z,28.39
2022-08-07T08:07:00.647Z,29.06
2022-08-07T08:07:51.550Z,28.38
2022-08-07T08:08:34.395Z,29.57
2022-08-07T08:09:09.722Z,28.90
2022-08-07T08:09:52.280Z,29.88
2022-08-07T08:10:38.649Z,29.62
2022-08-07T08:11:16.508Z,29.17
2022-08-07T08:12:02.413Z,28.87
2022-08-07T08:12:52.373Z,28.93
2022-08-07T08:13:25.201Z,29.53
2022-08-07T08:14:08.253Z,28.71
2022-08-07T08:14:42.607Z,29.06
2022-08-07T08:15:16.436Z,28.40
2022-08-07T08:15:58.348Z,29.32
2022-08-07T08:16:42.723Z,28.61
2022-08-07T08:17:55.677Z,29.09
2022-08-07T08:18:17.206Z,29.54
2022-08-07T08:18:51.642Z,28.74
2022-08-07T08:20:19.556Z,29.51
2022-08-07T08:20:26.209Z,30.26
2022-08-07T08:21:03.619Z,28.63
2022-08-07T08:22:03.142Z,28.96
2022-08-07T08:22:58.978Z,29.39
2022-08-07T08:23:50.643Z,28.85
2022-08-07T08:24:45.490Z,28.62
2022-08-07T08:25:42.748Z,29.09
2022-08-07T08:26:39.892Z,30.50
2022-08-07T08:27:14.409Z,29.89
2022-08-07T08:27:56.415Z,30.24
2022-08-07T08:28:38.259Z,29.92
2022-08-07T08:29:12.055Z,29.99
2022-08-07T08:29:55.505Z,29.26
2022-08-07T08:30:27.889Z,28.85
2022-08-07T08:31:00.846Z,29.19
2022-08-07T08:32:16.802Z,29.04
2022-08-07T08:32:49.069Z,28.71
2022-08-07T08:33:23.634Z,29.03
2022-08-07T08:33:57.790Z,28.87
2022-08-07T08:34:30.477Z,28.31
2022-08-07T08:35:02.273Z,28.31
2022-08-07T08:35:43.111Z,28.25
2022-08-07T08:36:25.741Z,28.22
2022-08-07T08:37:03.469Z,27.76
2022-08-07T08:38:01.129Z,27.26
2022-08-07T08:38:41.245Z,28.08
2022-08-07T08:39:13.418Z,28.41
2022-08-07T08:39:54.910Z,28.81
2022-08-07T08:40:36.445Z,29.05
2022-08-07T08:41:17.607Z,28.99
2022-08-07T08:42:05.174Z,29.37
2022-08-07T08:42:47.850Z,28.63
2022-08-07T08:43:56.130Z,28.31
2022-08-07T08:44:41.256Z,29.18
2022-08-07T08:45:58.532Z,28.39
2022-08-07T08:46:49.031Z,28.45
2022-08-07T08:47:34.431Z,28.51
2022-08-07T08:48:40.221Z,28.67
2022-08-07T08:49:46.846Z,29.84
2022-08-07T08:50:39.108Z,28.99
2022-08-07T08:52:13.957Z,28.82
2022-08-07T08:52:54.058Z,28.16
2022-08-07T08:54:02.538Z,28.51
2022-08-07T08:54:39.146Z,28.09
2022-08-07T08:55:55.342Z,27.81
2022-08-07T08:56:47.257Z,28.17
2022-08-07T08:57:38.845Z,28.48
2022-08-07T08:58:29.683Z,28.71
2022-08-07T08:59:20.546Z,29.36
2022-08-07T09:00:01.883Z,29.80
2022-08-07T09:00:42.481Z,29.22
2022-08-07T09:01:22.620Z,29.43
2022-08-07T09:02:15.677Z,29.45
2022-08-07T09:02:52.629Z,28.89
2022-08-07T09:03:49.740Z,28.43
2022-08-07T09:04:41.254Z,28.05
2022-08-07T09:05:42.894Z,28.75
2022-08-07T09:06:33.518Z,28.95
2022-08-07T09:07:23.072Z,29.41
2022-08-07T09:08:34.028Z,29.83